sensor_id;sensor_type;location;lat;lon;timestamp;temperature;humidity
12268;DHT22;6196;48.398;11.736;2022-10-19T00:01:11;12.90;99.90
12268;DHT22;6196;48.398;11.736;2022-10-19T00:03:43;13.00;99.90
12268;DHT22;6196;48.398;11.736;2022-10-19T00:06:32;13.00;99.90
12268;DHT22;6196;48.398;11.736;2022-10-19T00:09:10;13.10;99.90
12268;DHT22;6196;48.398;11.736;2022-10-19T00:11:41;13.20;99.90
12268;DHT22;6196;48.398;11.736;2022-10-19T00:14:13;13.30;99.90
12268;DHT22;6196;48.398;11.736;2022-10-19T00:16:43;13.40;99.90
12268;DHT22;6196;48.398;11.736;2022-10-19T00:19:17;13.50;99.90
12268;DHT22;6196;48.398;11.736;2022-10-19T00:21:45;13.40;99.90
12268;DHT22;6196;48.398;11.736;2022-10-19T00:24:12;13.30;99.90
12268;DHT22;6196;48.398;11.736;2022-10-19T00:26:39;13.20;99.90
12268;DHT22;6196;48.398;11.736;2022-10-19T00:29:07;13.20;99.90
12268;DHT22;6196;48.398;11.736;2022-10-19T00:31:34;13.20;99.90
12268;DHT22;6196;48.398;11.736;2022-10-19T00:34:01;13.20;99.90
12268;DHT22;6196;48.398;11.736;2022-10-19T00:36:31;13.30;99.90
12268;DHT22;6196;48.398;11.736;2022-10-19T00:39:00;13.30;99.90
12268;DHT22;6196;48.398;11.736;2022-10-19T00:41:30;13.20;99.90
12268;DHT22;6196;48.398;11.736;2022-10-19T00:47:02;13.30;99.90
12268;DHT22;6196;48.398;11.736;2022-10-19T00:49:37;13.30;99.90
12268;DHT22;6196;48.398;11.736;2022-10-19T00:52:08;13.30;99.90
12268;DHT22;6196;48.398;11.736;2022-10-19T00:54:38;13.40;99.90
12268;DHT22;6196;48.398;11.736;2022-10-19T00:57:07;13.40;99.90
12268;DHT22;6196;48.398;11.736;2022-10-19T00:59:36;13.40;99.90
12268;DHT22;6196;48.398;11.736;2022-10-19T01:02:05;13.30;99.90
12268;DHT22;6196;48.398;11.736;2022-10-19T01:04:35;13.00;99.90
12268;DHT22;6196;48.398;11.736;2022-10-19T01:07:05;13.00;99.90
12268;DHT22;6196;48.398;11.736;2022-10-19T01:09:33;13.00;99.90
12268;DHT22;6196;48.398;11.736;2022-10-19T01:12:21;13.00;99.90
12268;DHT22;6196;48.398;11.736;2022-10-19T01:15:05;13.10;99.90
12268;DHT22;6196;48.398;11.736;2022-10-19T01:18:32;13.10;99.90
12268;DHT22;6196;48.398;11.736;2022-10-19T01:26:52;13.60;99.90
12268;DHT22;6196;48.398;11.736;2022-10-19T01:35:32;14.00;99.90
12268;DHT22;6196;48.398;11.736;2022-10-19T01:38:31;14.10;99.90
12268;DHT22;6196;48.398;11.736;2022-10-19T01:41:16;14.10;99.90
12268;DHT22;6196;48.398;11.736;2022-10-19T01:44:14;14.20;99.90
12268;DHT22;6196;48.398;11.736;2022-10-19T01:46:48;13.80;99.90
12268;DHT22;6196;48.398;11.736;2022-10-19T01:49:31;13.60;99.90
12268;DHT22;6196;48.398;11.736;2022-10-19T01:52:04;13.40;99.90
12268;DHT22;6196;48.398;11.736;2022-10-19T01:54:36;13.30;99.90
12268;DHT22;6196;48.398;11.736;2022-10-19T01:57:06;13.30;99.90
12268;DHT22;6196;48.398;11.736;2022-10-19T01:59:35;13.30;99.90
12268;DHT22;6196;48.398;11.736;2022-10-19T02:02:04;13.30;99.90
12268;DHT22;6196;48.398;11.736;2022-10-19T02:04:33;13.30;99.90
12268;DHT22;6196;48.398;11.736;2022-10-19T02:07:03;13.30;99.90
12268;DHT22;6196;48.398;11.736;2022-10-19T02:09:32;13.30;99.90
12268;DHT22;6196;48.398;11.736;2022-10-19T02:12:01;13.30;99.90
12268;DHT22;6196;48.398;11.736;2022-10-19T02:14:33;13.30;99.90
12268;DHT22;6196;48.398;11.736;2022-10-19T02:17:16;13.40;99.90
12268;DHT22;6196;48.398;11.736;2022-10-19T02:19:44;13.40;99.90
12268;DHT22;6196;48.398;11.736;2022-10-19T02:22:11;13.40;99.90
12268;DHT22;6196;48.398;11.736;2022-10-19T02:24:39;13.40;99.90
12268;DHT22;6196;48.398;11.736;2022-10-19T02:27:06;13.50;99.90
12268;DHT22;6196;48.398;11.736;2022-10-19T02:29:36;13.50;99.90
12268;DHT22;6196;48.398;11.736;2022-10-19T02:32:03;13.60;99.90
12268;DHT22;6196;48.398;11.736;2022-10-19T02:34:30;13.50;99.90
12268;DHT22;6196;48.398;11.736;2022-10-19T02:36:58;13.60;99.90
12268;DHT22;6196;48.398;11.736;2022-10-19T02:39:24;13.60;99.90
12268;DHT22;6196;48.398;11.736;2022-10-19T02:41:53;13.60;99.90
12268;DHT22;6196;48.398;11.736;2022-10-19T02:47:16;13.50;99.90
12268;DHT22;6196;48.398;11.736;2022-10-19T02:49:45;13.50;99.90
12268;DHT22;6196;48.398;11.736;2022-10-19T02:52:13;13.50;99.90
12268;DHT22;6196;48.398;11.736;2022-10-19T02:54:41;13.40;99.90
12268;DHT22;6196;48.398;11.736;2022-10-19T02:57:20;13.50;99.90
12268;DHT22;6196;48.398;11.736;2022-10-19T02:59:49;13.50;99.90
12268;DHT22;6196;48.398;11.736;2022-10-19T03:02:17;13.50;99.90
12268;DHT22;6196;48.398;11.736;2022-10-19T03:04:45;13.60;99.90
12268;DHT22;6196;48.398;11.736;2022-10-19T03:07:18;13.60;99.90
12268;DHT22;6196;48.398;11.736;2022-10-19T03:09:46;13.60;99.90
12268;DHT22;6196;48.398;11.736;2022-10-19T03:12:14;13.80;99.90
12268;DHT22;6196;48.398;11.736;2022-10-19T03:14:41;13.70;99.90
12268;DHT22;6196;48.398;11.736;2022-10-19T03:17:08;13.60;99.90
12268;DHT22;6196;48.398;11.736;2022-10-19T03:19:36;13.60;99.90
12268;DHT22;6196;48.398;11.736;2022-10-19T03:22:03;13.60;99.90
12268;DHT22;6196;48.398;11.736;2022-10-19T03:24:30;13.60;99.90
12268;DHT22;6196;48.398;11.736;2022-10-19T03:26:57;13.50;99.90
12268;DHT22;6196;48.398;11.736;2022-10-19T03:29:24;13.60;99.90
12268;DHT22;6196;48.398;11.736;2022-10-19T03:31:51;13.50;99.90
12268;DHT22;6196;48.398;11.736;2022-10-19T03:34:18;13.60;99.90
12268;DHT22;6196;48.398;11.736;2022-10-19T03:36:45;13.60;99.90
12268;DHT22;6196;48.398;11.736;2022-10-19T03:39:14;13.40;99.90
12268;DHT22;6196;48.398;11.736;2022-10-19T03:41:42;13.30;99.90
12268;DHT22;6196;48.398;11.736;2022-10-19T03:44:10;13.30;99.90
12268;DHT22;6196;48.398;11.736;2022-10-19T03:46:37;13.20;99.90
12268;DHT22;6196;48.398;11.736;2022-10-19T03:49:05;13.20;99.90
12268;DHT22;6196;48.398;11.736;2022-10-19T03:51:32;13.00;99.90
12268;DHT22;6196;48.398;11.736;2022-10-19T03:54:04;12.90;99.90
12268;DHT22;6196;48.398;11.736;2022-10-19T03:56:34;13.00;99.90
12268;DHT22;6196;48.398;11.736;2022-10-19T03:59:02;13.00;99.90
12268;DHT22;6196;48.398;11.736;2022-10-19T04:01:35;12.90;99.90
12268;DHT22;6196;48.398;11.736;2022-10-19T04:04:06;12.80;99.90
12268;DHT22;6196;48.398;11.736;2022-10-19T04:06:45;12.80;99.90
12268;DHT22;6196;48.398;11.736;2022-10-19T04:09:16;12.80;99.90
12268;DHT22;6196;48.398;11.736;2022-10-19T04:11:44;12.70;99.90
12268;DHT22;6196;48.398;11.736;2022-10-19T04:14:12;12.80;99.90
12268;DHT22;6196;48.398;11.736;2022-10-19T04:16:59;12.80;99.90
12268;DHT22;6196;48.398;11.736;2022-10-19T04:19:26;12.80;99.90
12268;DHT22;6196;48.398;11.736;2022-10-19T04:21:53;12.80;99.90
12268;DHT22;6196;48.398;11.736;2022-10-19T04:24:20;12.80;99.90
12268;DHT22;6196;48.398;11.736;2022-10-19T04:26:49;12.90;99.90
12268;DHT22;6196;48.398;11.736;2022-10-19T04:29:19;13.00;99.90
12268;DHT22;6196;48.398;11.736;2022-10-19T04:31:51;13.10;99.90
12268;DHT22;6196;48.398;11.736;2022-10-19T04:34:18;13.00;99.90
12268;DHT22;6196;48.398;11.736;2022-10-19T04:36:45;13.10;99.90
12268;DHT22;6196;48.398;11.736;2022-10-19T04:39:12;13.10;99.90
12268;DHT22;6196;48.398;11.736;2022-10-19T04:41:39;13.10;99.90
12268;DHT22;6196;48.398;11.736;2022-10-19T04:44:06;13.10;99.90
12268;DHT22;6196;48.398;11.736;2022-10-19T04:46:33;13.20;99.90
12268;DHT22;6196;48.398;11.736;2022-10-19T04:49:00;13.20;99.90
12268;DHT22;6196;48.398;11.736;2022-10-19T04:51:29;13.20;99.90
12268;DHT22;6196;48.398;11.736;2022-10-19T04:53:56;13.20;99.90
12268;DHT22;6196;48.398;11.736;2022-10-19T04:56:26;13.30;99.90
12268;DHT22;6196;48.398;11.736;2022-10-19T04:58:54;13.20;99.90
12268;DHT22;6196;48.398;11.736;2022-10-19T05:01:24;13.20;99.90
12268;DHT22;6196;48.398;11.736;2022-10-19T05:03:56;13.30;99.90
12268;DHT22;6196;48.398;11.736;2022-10-19T05:06:24;13.30;99.90
12268;DHT22;6196;48.398;11.736;2022-10-19T05:08:52;13.40;99.90
12268;DHT22;6196;48.398;11.736;2022-10-19T05:11:19;13.50;99.90
12268;DHT22;6196;48.398;11.736;2022-10-19T05:13:47;13.60;99.90
12268;DHT22;6196;48.398;11.736;2022-10-19T05:16:19;13.60;99.90
12268;DHT22;6196;48.398;11.736;2022-10-19T05:18:49;13.70;99.90
12268;DHT22;6196;48.398;11.736;2022-10-19T05:21:18;13.80;99.90
12268;DHT22;6196;48.398;11.736;2022-10-19T05:23:49;13.80;99.90
12268;DHT22;6196;48.398;11.736;2022-10-19T05:26:18;13.80;99.90
12268;DHT22;6196;48.398;11.736;2022-10-19T05:28:54;13.90;99.90
12268;DHT22;6196;48.398;11.736;2022-10-19T05:31:30;13.90;99.90
12268;DHT22;6196;48.398;11.736;2022-10-19T05:33:58;14.00;99.90
12268;DHT22;6196;48.398;11.736;2022-10-19T05:36:28;13.90;99.90
12268;DHT22;6196;48.398;11.736;2022-10-19T05:39:14;13.90;99.90
12268;DHT22;6196;48.398;11.736;2022-10-19T05:41:43;14.00;99.90
12268;DHT22;6196;48.398;11.736;2022-10-19T05:44:20;14.00;99.90
12268;DHT22;6196;48.398;11.736;2022-10-19T05:46:49;14.10;99.90
12268;DHT22;6196;48.398;11.736;2022-10-19T05:49:18;14.00;99.90
12268;DHT22;6196;48.398;11.736;2022-10-19T05:51:47;14.10;99.90
12268;DHT22;6196;48.398;11.736;2022-10-19T05:54:14;14.00;99.90
12268;DHT22;6196;48.398;11.736;2022-10-19T05:56:42;14.00;99.90
12268;DHT22;6196;48.398;11.736;2022-10-19T05:59:13;14.00;99.90
12268;DHT22;6196;48.398;11.736;2022-10-19T06:01:41;14.10;99.90
12268;DHT22;6196;48.398;11.736;2022-10-19T06:04:09;14.00;99.90
12268;DHT22;6196;48.398;11.736;2022-10-19T06:06:36;14.10;99.90
12268;DHT22;6196;48.398;11.736;2022-10-19T06:09:03;14.00;99.90
12268;DHT22;6196;48.398;11.736;2022-10-19T06:11:32;14.00;99.90
12268;DHT22;6196;48.398;11.736;2022-10-19T06:14:03;14.00;99.90
12268;DHT22;6196;48.398;11.736;2022-10-19T06:16:31;14.10;99.90
12268;DHT22;6196;48.398;11.736;2022-10-19T06:18:59;14.10;99.90
12268;DHT22;6196;48.398;11.736;2022-10-19T06:21:28;14.00;99.90
12268;DHT22;6196;48.398;11.736;2022-10-19T06:23:58;14.10;99.90
12268;DHT22;6196;48.398;11.736;2022-10-19T06:26:26;14.20;99.90
12268;DHT22;6196;48.398;11.736;2022-10-19T06:28:56;14.10;99.90
12268;DHT22;6196;48.398;11.736;2022-10-19T06:31:30;14.30;99.90
12268;DHT22;6196;48.398;11.736;2022-10-19T06:33:58;14.10;99.90
12268;DHT22;6196;48.398;11.736;2022-10-19T06:36:28;14.20;99.90
12268;DHT22;6196;48.398;11.736;2022-10-19T06:38:56;14.20;99.90
12268;DHT22;6196;48.398;11.736;2022-10-19T06:41:25;14.20;99.90
12268;DHT22;6196;48.398;11.736;2022-10-19T06:43:53;14.30;99.90
12268;DHT22;6196;48.398;11.736;2022-10-19T06:46:22;14.30;99.90
12268;DHT22;6196;48.398;11.736;2022-10-19T06:48:56;14.40;99.90
12268;DHT22;6196;48.398;11.736;2022-10-19T06:51:26;14.40;99.90
12268;DHT22;6196;48.398;11.736;2022-10-19T06:53:54;14.50;99.90
12268;DHT22;6196;48.398;11.736;2022-10-19T06:56:23;14.50;99.90
12268;DHT22;6196;48.398;11.736;2022-10-19T06:58:52;14.60;99.90
12268;DHT22;6196;48.398;11.736;2022-10-19T07:01:19;14.60;99.90
12268;DHT22;6196;48.398;11.736;2022-10-19T07:03:46;14.60;99.90
12268;DHT22;6196;48.398;11.736;2022-10-19T07:06:13;14.60;99.90
12268;DHT22;6196;48.398;11.736;2022-10-19T07:08:41;14.50;99.90
12268;DHT22;6196;48.398;11.736;2022-10-19T07:11:11;14.60;99.90
12268;DHT22;6196;48.398;11.736;2022-10-19T07:13:41;14.70;99.90
12268;DHT22;6196;48.398;11.736;2022-10-19T07:16:12;14.70;99.90
12268;DHT22;6196;48.398;11.736;2022-10-19T07:18:47;14.80;99.90
12268;DHT22;6196;48.398;11.736;2022-10-19T07:21:16;14.90;99.90
12268;DHT22;6196;48.398;11.736;2022-10-19T07:23:44;14.90;99.90
12268;DHT22;6196;48.398;11.736;2022-10-19T07:26:21;15.00;99.90
12268;DHT22;6196;48.398;11.736;2022-10-19T07:28:54;15.10;99.90
12268;DHT22;6196;48.398;11.736;2022-10-19T07:31:23;15.20;99.90
12268;DHT22;6196;48.398;11.736;2022-10-19T07:33:52;15.30;99.90
12268;DHT22;6196;48.398;11.736;2022-10-19T07:36:22;15.50;99.90
12268;DHT22;6196;48.398;11.736;2022-10-19T07:38:50;15.80;99.90
12268;DHT22;6196;48.398;11.736;2022-10-19T07:41:19;16.20;99.90
12268;DHT22;6196;48.398;11.736;2022-10-19T07:43:48;16.40;99.90
12268;DHT22;6196;48.398;11.736;2022-10-19T07:46:22;16.70;99.90
12268;DHT22;6196;48.398;11.736;2022-10-19T07:48:51;16.90;99.90
12268;DHT22;6196;48.398;11.736;2022-10-19T07:51:19;16.80;99.90
12268;DHT22;6196;48.398;11.736;2022-10-19T07:53:47;16.90;99.90
12268;DHT22;6196;48.398;11.736;2022-10-19T07:56:21;17.00;99.90
12268;DHT22;6196;48.398;11.736;2022-10-19T07:58:50;16.70;99.90
12268;DHT22;6196;48.398;11.736;2022-10-19T08:01:20;16.70;99.90
12268;DHT22;6196;48.398;11.736;2022-10-19T08:03:52;16.90;99.90
12268;DHT22;6196;48.398;11.736;2022-10-19T08:06:40;16.80;99.90
12268;DHT22;6196;48.398;11.736;2022-10-19T08:09:07;16.80;99.90
12268;DHT22;6196;48.398;11.736;2022-10-19T08:11:35;16.90;99.90
12268;DHT22;6196;48.398;11.736;2022-10-19T08:14:02;16.90;99.90
12268;DHT22;6196;48.398;11.736;2022-10-19T08:16:38;16.90;99.90
12268;DHT22;6196;48.398;11.736;2022-10-19T08:19:12;16.70;99.90
12268;DHT22;6196;48.398;11.736;2022-10-19T08:21:45;16.60;99.90
12268;DHT22;6196;48.398;11.736;2022-10-19T08:24:14;16.50;99.90
12268;DHT22;6196;48.398;11.736;2022-10-19T08:26:42;16.60;99.90
12268;DHT22;6196;48.398;11.736;2022-10-19T08:29:13;16.60;99.90
12268;DHT22;6196;48.398;11.736;2022-10-19T08:31:42;16.70;99.90
12268;DHT22;6196;48.398;11.736;2022-10-19T08:34:11;16.70;99.90
12268;DHT22;6196;48.398;11.736;2022-10-19T08:36:38;16.90;99.90
12268;DHT22;6196;48.398;11.736;2022-10-19T08:39:11;17.10;99.90
12268;DHT22;6196;48.398;11.736;2022-10-19T08:41:58;17.20;99.90
12268;DHT22;6196;48.398;11.736;2022-10-19T08:46:59;17.50;99.90
12268;DHT22;6196;48.398;11.736;2022-10-19T08:49:31;17.50;99.90
12268;DHT22;6196;48.398;11.736;2022-10-19T08:52:18;17.60;99.90
12268;DHT22;6196;48.398;11.736;2022-10-19T08:54:51;17.60;99.90
12268;DHT22;6196;48.398;11.736;2022-10-19T08:57:49;17.70;99.90
12268;DHT22;6196;48.398;11.736;2022-10-19T09:06:36;18.00;99.90
12268;DHT22;6196;48.398;11.736;2022-10-19T09:09:15;18.10;99.90
12268;DHT22;6196;48.398;11.736;2022-10-19T09:11:47;18.20;99.90
12268;DHT22;6196;48.398;11.736;2022-10-19T09:14:21;18.30;99.90
12268;DHT22;6196;48.398;11.736;2022-10-19T09:16:50;18.40;99.90
12268;DHT22;6196;48.398;11.736;2022-10-19T09:19:25;18.50;99.90
12268;DHT22;6196;48.398;11.736;2022-10-19T09:21:56;18.30;99.90
12268;DHT22;6196;48.398;11.736;2022-10-19T09:24:29;18.20;99.90
12268;DHT22;6196;48.398;11.736;2022-10-19T09:27:01;18.00;99.90
12268;DHT22;6196;48.398;11.736;2022-10-19T09:29:42;18.00;99.90
12268;DHT22;6196;48.398;11.736;2022-10-19T09:32:20;18.10;99.90
12268;DHT22;6196;48.398;11.736;2022-10-19T09:34:55;18.00;99.90
12268;DHT22;6196;48.398;11.736;2022-10-19T09:37:28;17.90;99.90
12268;DHT22;6196;48.398;11.736;2022-10-19T09:40:00;17.90;99.90
12268;DHT22;6196;48.398;11.736;2022-10-19T09:42:32;17.80;99.90
12268;DHT22;6196;48.398;11.736;2022-10-19T09:45:10;18.00;99.90
12268;DHT22;6196;48.398;11.736;2022-10-19T09:47:45;18.00;99.90
12268;DHT22;6196;48.398;11.736;2022-10-19T09:50:20;18.30;99.90
12268;DHT22;6196;48.398;11.736;2022-10-19T10:00:49;18.80;99.90
12268;DHT22;6196;48.398;11.736;2022-10-19T10:08:50;19.20;99.90
12268;DHT22;6196;48.398;11.736;2022-10-19T10:11:29;19.50;99.90
12268;DHT22;6196;48.398;11.736;2022-10-19T10:14:51;19.80;99.90
12268;DHT22;6196;48.398;11.736;2022-10-19T10:17:15;20.30;99.90
12268;DHT22;6196;48.398;11.736;2022-10-19T10:20:17;20.90;99.90
12268;DHT22;6196;48.398;11.736;2022-10-19T10:22:57;20.70;99.90
12268;DHT22;6196;48.398;11.736;2022-10-19T10:25:31;20.70;99.90
12268;DHT22;6196;48.398;11.736;2022-10-19T10:28:16;20.70;99.90
12268;DHT22;6196;48.398;11.736;2022-10-19T10:30:47;20.80;99.90
12268;DHT22;6196;48.398;11.736;2022-10-19T10:33:23;21.20;99.90
12268;DHT22;6196;48.398;11.736;2022-10-19T10:36:10;21.30;99.90
12268;DHT22;6196;48.398;11.736;2022-10-19T10:38:44;21.40;99.90
12268;DHT22;6196;48.398;11.736;2022-10-19T10:41:15;20.90;99.90
12268;DHT22;6196;48.398;11.736;2022-10-19T10:44:06;20.50;99.90
12268;DHT22;6196;48.398;11.736;2022-10-19T10:46:54;20.70;99.90
12268;DHT22;6196;48.398;11.736;2022-10-19T10:49:34;20.50;99.90
12268;DHT22;6196;48.398;11.736;2022-10-19T10:52:13;20.30;99.90
12268;DHT22;6196;48.398;11.736;2022-10-19T10:54:57;20.30;99.90
12268;DHT22;6196;48.398;11.736;2022-10-19T10:57:37;20.50;99.90
12268;DHT22;6196;48.398;11.736;2022-10-19T11:00:18;20.80;99.90
12268;DHT22;6196;48.398;11.736;2022-10-19T11:11:14;21.30;99.90
12268;DHT22;6196;48.398;11.736;2022-10-19T11:13:55;21.70;99.90
12268;DHT22;6196;48.398;11.736;2022-10-19T11:16:37;23.10;99.90
12268;DHT22;6196;48.398;11.736;2022-10-19T11:27:35;23.40;99.90
12268;DHT22;6196;48.398;11.736;2022-10-19T11:30:14;24.10;99.90
12268;DHT22;6196;48.398;11.736;2022-10-19T11:41:58;27.40;99.90
12268;DHT22;6196;48.398;11.736;2022-10-19T11:44:44;27.50;99.90
12268;DHT22;6196;48.398;11.736;2022-10-19T11:47:43;27.70;99.90
12268;DHT22;6196;48.398;11.736;2022-10-19T11:53:07;27.90;99.90
12268;DHT22;6196;48.398;11.736;2022-10-19T11:56:08;27.50;99.90
12268;DHT22;6196;48.398;11.736;2022-10-19T12:02:04;27.10;99.90
12268;DHT22;6196;48.398;11.736;2022-10-19T12:13:41;28.80;99.90
12268;DHT22;6196;48.398;11.736;2022-10-19T12:16:13;28.20;99.90
12268;DHT22;6196;48.398;11.736;2022-10-19T12:18:46;28.00;99.90
12268;DHT22;6196;48.398;11.736;2022-10-19T12:24:09;29.80;99.90
12268;DHT22;6196;48.398;11.736;2022-10-19T12:26:46;29.50;99.90
12268;DHT22;6196;48.398;11.736;2022-10-19T12:29:24;29.20;99.90
12268;DHT22;6196;48.398;11.736;2022-10-19T12:31:55;29.90;99.10
12268;DHT22;6196;48.398;11.736;2022-10-19T12:34:27;30.20;98.10
12268;DHT22;6196;48.398;11.736;2022-10-19T12:50:58;30.30;94.30
12268;DHT22;6196;48.398;11.736;2022-10-19T12:53:30;28.70;95.20
12268;DHT22;6196;48.398;11.736;2022-10-19T12:56:27;27.90;97.30
12268;DHT22;6196;48.398;11.736;2022-10-19T12:58:58;28.60;97.50
12268;DHT22;6196;48.398;11.736;2022-10-19T13:01:40;30.10;95.60
12268;DHT22;6196;48.398;11.736;2022-10-19T13:04:13;30.90;94.80
12268;DHT22;6196;48.398;11.736;2022-10-19T13:07:05;31.50;93.90
12268;DHT22;6196;48.398;11.736;2022-10-19T13:09:38;31.70;93.20
12268;DHT22;6196;48.398;11.736;2022-10-19T13:14:48;28.40;95.90
12268;DHT22;6196;48.398;11.736;2022-10-19T13:25:42;31.70;92.70
12268;DHT22;6196;48.398;11.736;2022-10-19T13:41:09;26.30;95.40
12268;DHT22;6196;48.398;11.736;2022-10-19T13:43:49;24.80;97.40
12268;DHT22;6196;48.398;11.736;2022-10-19T13:52:25;27.10;96.10
12268;DHT22;6196;48.398;11.736;2022-10-19T14:06:32;23.60;99.90
12268;DHT22;6196;48.398;11.736;2022-10-19T14:09:25;25.90;99.70
12268;DHT22;6196;48.398;11.736;2022-10-19T14:12:28;28.40;97.40
12268;DHT22;6196;48.398;11.736;2022-10-19T14:14:53;27.70;96.00
12268;DHT22;6196;48.398;11.736;2022-10-19T14:17:25;26.40;97.00
12268;DHT22;6196;48.398;11.736;2022-10-19T14:19:56;25.70;98.30
12268;DHT22;6196;48.398;11.736;2022-10-19T14:22:28;25.10;98.60
12268;DHT22;6196;48.398;11.736;2022-10-19T14:25:04;24.00;99.90
12268;DHT22;6196;48.398;11.736;2022-10-19T14:27:53;23.50;99.90
12268;DHT22;6196;48.398;11.736;2022-10-19T14:30:29;23.00;99.90
12268;DHT22;6196;48.398;11.736;2022-10-19T14:32:59;22.60;99.90
12268;DHT22;6196;48.398;11.736;2022-10-19T14:35:32;23.00;99.90
12268;DHT22;6196;48.398;11.736;2022-10-19T14:38:04;23.60;99.90
12268;DHT22;6196;48.398;11.736;2022-10-19T14:40:39;23.30;99.90
12268;DHT22;6196;48.398;11.736;2022-10-19T14:43:26;23.90;99.90
12268;DHT22;6196;48.398;11.736;2022-10-19T14:48:44;25.90;99.90
12268;DHT22;6196;48.398;11.736;2022-10-19T14:51:26;27.60;98.40
12268;DHT22;6196;48.398;11.736;2022-10-19T14:56:59;27.00;96.90
12268;DHT22;6196;48.398;11.736;2022-10-19T14:59:42;25.50;98.60
12268;DHT22;6196;48.398;11.736;2022-10-19T15:05:21;23.70;99.90
12268;DHT22;6196;48.398;11.736;2022-10-19T15:07:50;22.60;99.90
12268;DHT22;6196;48.398;11.736;2022-10-19T15:12:47;21.50;99.90
12268;DHT22;6196;48.398;11.736;2022-10-19T15:15:20;21.00;99.90
12268;DHT22;6196;48.398;11.736;2022-10-19T15:18:13;20.70;99.90
12268;DHT22;6196;48.398;11.736;2022-10-19T15:21:09;20.30;99.90
12268;DHT22;6196;48.398;11.736;2022-10-19T15:28:50;19.70;99.90
12268;DHT22;6196;48.398;11.736;2022-10-19T15:31:27;19.40;99.90
12268;DHT22;6196;48.398;11.736;2022-10-19T15:33:57;19.40;99.90
12268;DHT22;6196;48.398;11.736;2022-10-19T15:36:26;19.30;99.90
12268;DHT22;6196;48.398;11.736;2022-10-19T15:39:03;19.10;99.90
12268;DHT22;6196;48.398;11.736;2022-10-19T15:41:51;18.80;99.90
12268;DHT22;6196;48.398;11.736;2022-10-19T15:44:39;18.50;99.90
12268;DHT22;6196;48.398;11.736;2022-10-19T15:52:14;17.70;99.90
12268;DHT22;6196;48.398;11.736;2022-10-19T15:54:51;17.50;99.90
12268;DHT22;6196;48.398;11.736;2022-10-19T15:57:36;17.30;99.90
12268;DHT22;6196;48.398;11.736;2022-10-19T16:00:12;17.20;99.90
12268;DHT22;6196;48.398;11.736;2022-10-19T16:02:40;17.10;99.90
12268;DHT22;6196;48.398;11.736;2022-10-19T16:05:07;16.90;99.90
12268;DHT22;6196;48.398;11.736;2022-10-19T16:07:36;16.70;99.90
12268;DHT22;6196;48.398;11.736;2022-10-19T16:10:05;16.60;99.90
12268;DHT22;6196;48.398;11.736;2022-10-19T16:12:32;16.40;99.90
12268;DHT22;6196;48.398;11.736;2022-10-19T16:14:59;16.40;99.90
12268;DHT22;6196;48.398;11.736;2022-10-19T16:17:26;16.30;99.90
12268;DHT22;6196;48.398;11.736;2022-10-19T16:19:53;16.10;99.90
12268;DHT22;6196;48.398;11.736;2022-10-19T16:22:19;16.00;99.90
12268;DHT22;6196;48.398;11.736;2022-10-19T16:24:46;15.80;99.90
12268;DHT22;6196;48.398;11.736;2022-10-19T16:27:13;15.70;99.90
12268;DHT22;6196;48.398;11.736;2022-10-19T16:29:42;15.50;99.90
12268;DHT22;6196;48.398;11.736;2022-10-19T16:32:10;15.40;99.90
12268;DHT22;6196;48.398;11.736;2022-10-19T16:34:36;15.30;99.90
12268;DHT22;6196;48.398;11.736;2022-10-19T16:37:03;15.20;99.90
12268;DHT22;6196;48.398;11.736;2022-10-19T16:39:33;15.00;99.90
12268;DHT22;6196;48.398;11.736;2022-10-19T16:42:00;14.90;99.90
12268;DHT22;6196;48.398;11.736;2022-10-19T16:44:26;14.90;99.90
12268;DHT22;6196;48.398;11.736;2022-10-19T16:46:55;14.70;99.90
12268;DHT22;6196;48.398;11.736;2022-10-19T16:49:22;14.70;99.90
12268;DHT22;6196;48.398;11.736;2022-10-19T16:51:50;14.60;99.90
12268;DHT22;6196;48.398;11.736;2022-10-19T16:54:23;14.50;99.90
12268;DHT22;6196;48.398;11.736;2022-10-19T16:56:51;14.40;99.90
12268;DHT22;6196;48.398;11.736;2022-10-19T16:59:18;14.30;99.90
12268;DHT22;6196;48.398;11.736;2022-10-19T17:01:45;14.30;99.90
12268;DHT22;6196;48.398;11.736;2022-10-19T17:04:14;14.10;99.90
12268;DHT22;6196;48.398;11.736;2022-10-19T17:06:42;14.00;99.90
12268;DHT22;6196;48.398;11.736;2022-10-19T17:09:09;14.00;99.90
12268;DHT22;6196;48.398;11.736;2022-10-19T17:11:56;13.90;99.90
12268;DHT22;6196;48.398;11.736;2022-10-19T17:14:23;13.70;99.90
12268;DHT22;6196;48.398;11.736;2022-10-19T17:16:49;13.60;99.90
12268;DHT22;6196;48.398;11.736;2022-10-19T17:19:16;13.50;99.90
12268;DHT22;6196;48.398;11.736;2022-10-19T17:21:43;13.50;99.90
12268;DHT22;6196;48.398;11.736;2022-10-19T17:24:13;13.50;99.90
12268;DHT22;6196;48.398;11.736;2022-10-19T17:26:51;13.50;99.90
12268;DHT22;6196;48.398;11.736;2022-10-19T17:29:20;13.40;99.90
12268;DHT22;6196;48.398;11.736;2022-10-19T17:31:48;13.40;99.90
12268;DHT22;6196;48.398;11.736;2022-10-19T17:34:16;13.40;99.90
12268;DHT22;6196;48.398;11.736;2022-10-19T17:36:45;13.40;99.90
12268;DHT22;6196;48.398;11.736;2022-10-19T17:39:16;13.40;99.90
12268;DHT22;6196;48.398;11.736;2022-10-19T17:41:45;13.40;99.90
12268;DHT22;6196;48.398;11.736;2022-10-19T17:44:13;13.40;99.90
12268;DHT22;6196;48.398;11.736;2022-10-19T17:46:40;13.40;99.90
12268;DHT22;6196;48.398;11.736;2022-10-19T17:49:07;13.50;99.90
12268;DHT22;6196;48.398;11.736;2022-10-19T17:51:36;13.40;99.90
12268;DHT22;6196;48.398;11.736;2022-10-19T17:54:08;13.40;99.90
12268;DHT22;6196;48.398;11.736;2022-10-19T17:56:38;13.30;99.90
12268;DHT22;6196;48.398;11.736;2022-10-19T17:59:05;13.40;99.90
12268;DHT22;6196;48.398;11.736;2022-10-19T18:01:34;13.30;99.90
12268;DHT22;6196;48.398;11.736;2022-10-19T18:04:02;13.20;99.90
12268;DHT22;6196;48.398;11.736;2022-10-19T18:06:32;13.20;99.90
12268;DHT22;6196;48.398;11.736;2022-10-19T18:09:03;13.20;99.90
12268;DHT22;6196;48.398;11.736;2022-10-19T18:11:43;13.10;99.90
12268;DHT22;6196;48.398;11.736;2022-10-19T18:14:11;13.10;99.90
12268;DHT22;6196;48.398;11.736;2022-10-19T18:16:40;13.10;99.90
12268;DHT22;6196;48.398;11.736;2022-10-19T18:19:14;13.10;99.90
12268;DHT22;6196;48.398;11.736;2022-10-19T18:21:43;13.00;99.90
12268;DHT22;6196;48.398;11.736;2022-10-19T18:24:13;13.00;99.90
12268;DHT22;6196;48.398;11.736;2022-10-19T18:26:45;13.00;99.90
12268;DHT22;6196;48.398;11.736;2022-10-19T18:29:15;12.90;99.90
12268;DHT22;6196;48.398;11.736;2022-10-19T18:31:44;12.90;99.90
12268;DHT22;6196;48.398;11.736;2022-10-19T18:34:19;12.90;99.90
12268;DHT22;6196;48.398;11.736;2022-10-19T18:36:46;12.90;99.90
12268;DHT22;6196;48.398;11.736;2022-10-19T18:39:14;12.80;99.90
12268;DHT22;6196;48.398;11.736;2022-10-19T18:41:41;12.80;99.90
12268;DHT22;6196;48.398;11.736;2022-10-19T18:44:11;12.80;99.90